Meath Environmental Platform

Observations for Trim Patrick St

Time AQI Temp °C Hum % Pres Pa CO μg/m³ H₂S μg/m³ NO μg/m³ NO₂ μg/m³ O₃ μg/m³ SO₂ μg/m³ PM1 μg/m³ PM2.5 μg/m³ PM10 μg/m³
Friday 7 August 2026
03:06 2 12.1 78 38,460 0.3 3.37 3.97 23.44 30.13 0 2.86 6.02 6.62
03:05 2 12.1 79 38,460 0.3 3.11 3.97 14.44 24.53 0 2 6.02 6.62
03:04 2 12.1 78 38,460 0.3 4.43 3.97 26 42.65 0 2 6.02 6.62
03:03 2 12.2 78 38,460 0.3 3.19 3.92 22.21 26.34 0 2.86 6.02 6.62
03:02 2 12.2 78 38,460 0.3 4.53 3.84 17.92 30.02 0 2.86 6.06 6.66
03:01 2 12.2 78 38,460 0.3 4.09 3.85 25.02 36.19 0 2.86 6.05 6.65
03:00 2 12.2 78 38,460 0.3 4.71 3.87 21.75 35.28 0 2 6.06 6.66
02:59 2 12.2 78 38,460 0.29 4.95 3.86 25.88 26.86 0 2 6.05 6.65
02:58 2 12.2 78 38,460 0.29 5.49 3.84 30.59 41.52 0 3.71 7.46 8.21
02:57 2 12.2 77 38,460 0.29 3.32 3.87 25.33 25.06 0 2.86 7.51 8.26
02:56 2 12.2 78 38,460 0.3 2.83 3.9 14.87 28.67 0 3.71 7.47 8.22
02:55 2 12.2 78 38,460 0.29 4.43 3.89 18.77 21.81 0 2.86 6.77 7.45
02:54 2 12.2 78 38,460 0.28 4.48 3.93 30.11 33.34 0 2.86 6.08 6.68
02:53 2 12.3 78 38,460 0.29 4.61 3.92 15.58 30.04 0 2.86 6.08 6.68
02:52 2 12.3 78 38,460 0.28 5.78 3.91 32.71 38.63 0 2 6.78 7.46
02:51 2 12.3 78 38,460 0.29 2.31 3.92 19.54 24.28 0 2 5.38 5.92
02:50 2 12.3 78 38,460 0.28 2.75 3.92 16.28 31.75 0 2.86 6.08 6.69
02:49 2 12.3 78 38,460 0.28 2.62 3.89 16.73 24.38 0 2.86 7.5 8.25
02:48 2 12.3 78 38,460 0.29 3.91 3.9 24.44 24.64 0 2.86 6.79 7.47
02:47 2 12.3 77 38,460 0.29 3.81 3.93 17.2 30.33 0 3.71 8.21 9.03